Back to Top

My Weather Underground Personal Weather Station Historical Data with Graphs...


Delerius Weather Station Historical Data
 
Daily Summary for July 24, 2019 Units:  Metric    English   Both
Daily Weekly Monthly Yearly Custom
  Current: High: Low: Average:
Temperature: 14 °C 18 °C 12 °C 15.5 °C
Dew Point: 11 °C 16 °C 9 °C 11.6 °C
Humidity: 79% 93% 56% 78%
Wind Speed: 16km/h 29km/h 5km/h 14.8km/h
Wind Gust: 32km/h 51km/h - -
WindWNW - - West
Pressure: 1018.02 hPa 1018.12 hPa 1010.7 hPa -
Precipitation: 0.51 mm      
Historical Graphs
 
 
Tabular Data for July 24, 2019
Time Temperature Dew Point Pressure Wind Wind Speed Wind Gust Humidity Rainfall Rate (Hourly) solar Conditions
00:04 14 °C 13 °C 1012.8 hPa SSW 15 km/h 24 km/h 92% 0 mm 0 W/m2
00:09 14 °C 13 °C 1012.73 hPa SSW 13 km/h 24 km/h 92% 0 mm 0 W/m2
00:14 14 °C 13 °C 1012.63 hPa SW 13 km/h 21 km/h 92% 0.25 mm 0 W/m2
00:19 14 °C 13 °C 1012.56 hPa SW 14 km/h 21 km/h 92% 0.25 mm 0 W/m2
00:24 14 °C 13 °C 1012.5 hPa SW 15 km/h 23 km/h 92% 0.25 mm 0 W/m2
00:29 14 °C 13 °C 1012.46 hPa SW 13 km/h 23 km/h 92% 0.25 mm 0 W/m2
00:34 15 °C 13 °C 1012.36 hPa SW 14 km/h 26 km/h 92% 0.25 mm 0 W/m2
00:39 15 °C 13 °C 1012.36 hPa SW 14 km/h 24 km/h 92% 0.25 mm 0 W/m2
00:44 15 °C 14 °C 1012.36 hPa WSW 17 km/h 32 km/h 91% 0.25 mm 0 W/m2
00:49 15 °C 14 °C 1012.33 hPa SW 18 km/h 32 km/h 91% 0.25 mm 0 W/m2
00:54 15 °C 14 °C 1012.23 hPa SW 17 km/h 31 km/h 91% 0.25 mm 0 W/m2
00:59 15 °C 14 °C 1012.23 hPa SW 17 km/h 31 km/h 91% 0.25 mm 0 W/m2
01:04 15 °C 14 °C 1012.19 hPa SW 19 km/h 32 km/h 92% 0.25 mm 0 W/m2
01:09 15 °C 14 °C 1012.19 hPa SW 16 km/h 32 km/h 92% 0.25 mm 0 W/m2
01:14 15 °C 14 °C 1012.09 hPa SW 16 km/h 29 km/h 92% 0.25 mm 0 W/m2
01:19 15 °C 14 °C 1011.99 hPa SW 19 km/h 29 km/h 92% 0 mm 0 W/m2
01:24 15 °C 14 °C 1011.89 hPa SW 17 km/h 26 km/h 93% 0 mm 0 W/m2
01:29 15 °C 14 °C 1011.75 hPa SW 18 km/h 31 km/h 93% 0 mm 0 W/m2
01:34 15 °C 14 °C 1011.68 hPa SW 17 km/h 29 km/h 93% 0 mm 0 W/m2
01:39 15 °C 14 °C 1011.62 hPa SW 16 km/h 29 km/h 93% 0 mm 0 W/m2
01:44 15 °C 14 °C 1011.58 hPa SW 17 km/h 29 km/h 93% 0 mm 0 W/m2
01:49 15 °C 14 °C 1011.58 hPa SW 17 km/h 26 km/h 93% 0 mm 0 W/m2
01:54 16 °C 14 °C 1011.62 hPa SW 16 km/h 24 km/h 93% 0 mm 0 W/m2
01:59 16 °C 15 °C 1011.55 hPa SW 18 km/h 34 km/h 93% 0 mm 0 W/m2
02:04 16 °C 15 °C 1011.58 hPa SW 20 km/h 34 km/h 93% 0 mm 0 W/m2
02:09 16 °C 15 °C 1011.48 hPa SW 22 km/h 35 km/h 93% 0 mm 0 W/m2
02:14 16 °C 15 °C 1011.41 hPa WSW 24 km/h 40 km/h 92% 0 mm 0 W/m2
02:19 16 °C 15 °C 1011.38 hPa SW 22 km/h 37 km/h 92% 0 mm 0 W/m2
02:24 17 °C 15 °C 1011.28 hPa SW 21 km/h 35 km/h 91% 0 mm 0 W/m2
02:29 17 °C 15 °C 1011.07 hPa SW 23 km/h 37 km/h 90% 0 mm 0 W/m2
02:34 17 °C 15 °C 1011.18 hPa WSW 23 km/h 37 km/h 90% 0 mm 0 W/m2
02:39 17 °C 15 °C 1011.07 hPa SW 22 km/h 35 km/h 90% 0 mm 0 W/m2
02:44 17 °C 15 °C 1010.87 hPa SW 22 km/h 34 km/h 89% 0 mm 0 W/m2
02:49 17 °C 15 °C 1010.84 hPa SW 21 km/h 37 km/h 89% 0 mm 0 W/m2
02:54 17 °C 15 °C 1010.87 hPa SW 25 km/h 40 km/h 89% 0 mm 0 W/m2
02:59 17 °C 15 °C 1010.8 hPa SW 23 km/h 40 km/h 89% 0 mm 0 W/m2
03:04 17 °C 15 °C 1010.8 hPa SW 21 km/h 39 km/h 89% 0 mm 0 W/m2
03:09 17 °C 15 °C 1010.7 hPa SW 19 km/h 35 km/h 89% 0 mm 0 W/m2
03:14 17 °C 15 °C 1010.74 hPa WSW 20 km/h 34 km/h 89% 0 mm 0 W/m2
03:19 17 °C 15 °C 1010.74 hPa SW 20 km/h 39 km/h 89% 0 mm 0 W/m2
03:24 17 °C 15 °C 1010.97 hPa WSW 21 km/h 39 km/h 89% 0 mm 0 W/m2
03:29 17 °C 15 °C 1011.04 hPa WSW 19 km/h 37 km/h 89% 0 mm 0 W/m2
03:34 17 °C 16 °C 1011.04 hPa WSW 19 km/h 37 km/h 89% 0 mm 0 W/m2
03:39 17 °C 16 °C 1011.01 hPa WSW 24 km/h 37 km/h 88% 0 mm 0 W/m2
03:44 18 °C 16 °C 1011.11 hPa WSW 23 km/h 47 km/h 88% 0 mm 0 W/m2
03:49 18 °C 16 °C 1011.07 hPa WSW 23 km/h 40 km/h 88% 0 mm 0 W/m2
03:54 17 °C 16 °C 1011.04 hPa WSW 22 km/h 35 km/h 88% 0 mm 0 W/m2
03:59 17 °C 16 °C 1011.11 hPa WSW 21 km/h 35 km/h 89% 0 mm 0 W/m2
04:04 17 °C 16 °C 1011.04 hPa WSW 21 km/h 39 km/h 90% 0 mm 0 W/m2
04:09 17 °C 16 °C 1010.97 hPa WSW 21 km/h 39 km/h 90% 0 mm 0 W/m2
04:14 17 °C 16 °C 1010.94 hPa WSW 22 km/h 37 km/h 91% 0 mm 0 W/m2
04:19 17 °C 16 °C 1011.01 hPa WSW 21 km/h 37 km/h 91% 0 mm 0 W/m2
04:24 17 °C 16 °C 1011.04 hPa WSW 23 km/h 37 km/h 90% 0 mm 0 W/m2
04:29 17 °C 16 °C 1011.04 hPa WSW 24 km/h 43 km/h 90% 0 mm 0 W/m2
04:34 17 °C 16 °C 1011.07 hPa WSW 23 km/h 43 km/h 90% 0 mm 0 W/m2
04:39 18 °C 16 °C 1010.94 hPa WSW 25 km/h 43 km/h 89% 0 mm 0 W/m2
04:44 18 °C 16 °C 1010.94 hPa WSW 28 km/h 47 km/h 89% 0 mm 0 W/m2
04:49 18 °C 16 °C 1011.01 hPa W 28 km/h 42 km/h 89% 0 mm 0 W/m2
04:54 18 °C 16 °C 1010.97 hPa WSW 29 km/h 47 km/h 89% 0 mm 0 W/m2
04:59 18 °C 16 °C 1010.94 hPa WSW 27 km/h 48 km/h 89% 0 mm 0 W/m2
05:04 18 °C 16 °C 1010.87 hPa WSW 29 km/h 51 km/h 89% 0 mm 0 W/m2
05:09 17 °C 16 °C 1011.28 hPa WSW 26 km/h 45 km/h 89% 0 mm 0 W/m2
05:14 17 °C 15 °C 1011.58 hPa WNW 27 km/h 50 km/h 88% 0.25 mm 0 W/m2
05:19 16 °C 14 °C 1011.79 hPa WNW 28 km/h 50 km/h 88% 0.25 mm 0 W/m2
05:24 16 °C 14 °C 1011.51 hPa WNW 24 km/h 40 km/h 88% 0.25 mm 0 W/m2
05:29 15 °C 13 °C 1011.72 hPa WNW 22 km/h 40 km/h 89% 0.25 mm 0 W/m2
05:34 15 °C 13 °C 1011.68 hPa WNW 18 km/h 32 km/h 90% 0.25 mm 0 W/m2
05:39 15 °C 13 °C 1011.68 hPa WNW 18 km/h 32 km/h 90% 0.25 mm 0 W/m2
05:44 15 °C 13 °C 1011.68 hPa WNW 16 km/h 32 km/h 91% 0.25 mm 0 W/m2
05:49 14 °C 13 °C 1011.89 hPa WNW 17 km/h 32 km/h 91% 0.25 mm 0 W/m2
05:54 14 °C 13 °C 1011.92 hPa WNW 13 km/h 26 km/h 91% 0.25 mm 0 W/m2
05:59 14 °C 13 °C 1011.75 hPa WNW 15 km/h 26 km/h 91% 0.25 mm 0 W/m2
06:04 14 °C 13 °C 1011.79 hPa WNW 14 km/h 29 km/h 91% 0.25 mm 0 W/m2
06:09 14 °C 13 °C 1011.85 hPa WNW 13 km/h 29 km/h 91% 0.25 mm 0 W/m2
06:14 14 °C 13 °C 1012.02 hPa WNW 14 km/h 29 km/h 91% 0.25 mm 0 W/m2
06:19 14 °C 13 °C 1012.02 hPa W 11 km/h 19 km/h 92% 0 mm 0 W/m2
06:24 14 °C 13 °C 1012.09 hPa W 8 km/h 16 km/h 92% 0 mm 0 W/m2
06:29 14 °C 13 °C 1012.23 hPa W 15 km/h 35 km/h 92% 0 mm 0 W/m2
06:34 14 °C 13 °C 1012.23 hPa W 20 km/h 39 km/h 92% 0 mm 0 W/m2
06:39 14 °C 13 °C 1012.33 hPa W 18 km/h 39 km/h 92% 0 mm 0 W/m2
06:44 14 °C 13 °C 1012.5 hPa W 19 km/h 32 km/h 91% 0 mm 5 W/m2
06:49 14 °C 12 °C 1012.5 hPa W 19 km/h 32 km/h 91% 0 mm 5 W/m2
06:54 14 °C 12 °C 1012.39 hPa W 19 km/h 32 km/h 91% 0 mm 7 W/m2
06:59 14 °C 12 °C 1012.53 hPa W 16 km/h 32 km/h 91% 0 mm 7 W/m2
07:04 14 °C 12 °C 1012.63 hPa W 15 km/h 29 km/h 91% 0 mm 7 W/m2
07:09 14 °C 13 °C 1012.56 hPa W 14 km/h 26 km/h 91% 0 mm 7 W/m2
07:14 14 °C 13 °C 1012.77 hPa W 15 km/h 26 km/h 92% 0 mm 7 W/m2
07:19 14 °C 13 °C 1013.04 hPa WNW 12 km/h 24 km/h 92% 0 mm 9 W/m2
07:24 14 °C 13 °C 1013.04 hPa WNW 10 km/h 24 km/h 92% 0 mm 30 W/m2
07:29 14 °C 13 °C 1013.21 hPa W 13 km/h 24 km/h 92% 0 mm 30 W/m2
07:34 14 °C 13 °C 1013.28 hPa W 16 km/h 26 km/h 92% 0 mm 32 W/m2
07:39 14 °C 13 °C 1013.31 hPa WNW 16 km/h 29 km/h 92% 0 mm 49 W/m2
07:44 14 °C 13 °C 1013.38 hPa WNW 16 km/h 31 km/h 92% 0 mm 49 W/m2
07:49 14 °C 12 °C 1013.34 hPa WNW 14 km/h 26 km/h 92% 0 mm 44 W/m2
07:54 14 °C 12 °C 1013.55 hPa WNW 14 km/h 26 km/h 92% 0 mm 35 W/m2
07:59 14 °C 12 °C 1013.82 hPa NW 14 km/h 24 km/h 91% 0 mm 54 W/m2
08:04 13 °C 12 °C 1014.02 hPa NW 17 km/h 29 km/h 90% 0 mm 77 W/m2
08:09 13 °C 11 °C 1014.16 hPa WNW 16 km/h 29 km/h 90% 0 mm 72 W/m2
08:14 13 °C 11 °C 1014.09 hPa WNW 17 km/h 29 km/h 91% 0 mm 72 W/m2
08:19 13 °C 11 °C 1013.99 hPa WNW 14 km/h 29 km/h 91% 0 mm 65 W/m2
08:24 13 °C 11 °C 1014.19 hPa WNW 14 km/h 23 km/h 91% 0 mm 60 W/m2
08:29 12 °C 11 °C 1014.29 hPa WNW 14 km/h 23 km/h 91% 0 mm 62 W/m2
08:34 12 °C 11 °C 1014.46 hPa WNW 12 km/h 18 km/h 91% 0 mm 62 W/m2
08:39 12 °C 11 °C 1014.46 hPa W 9 km/h 31 km/h 91% 0 mm 81 W/m2
08:44 12 °C 11 °C 1014.39 hPa W 15 km/h 31 km/h 91% 0 mm 100 W/m2
08:49 12 °C 11 °C 1014.29 hPa W 12 km/h 23 km/h 91% 0 mm 113 W/m2
08:54 13 °C 11 °C 1014.19 hPa W 10 km/h 18 km/h 91% 0 mm 91 W/m2
08:59 13 °C 11 °C 1014.36 hPa W 14 km/h 31 km/h 91% 0 mm 116 W/m2
09:04 13 °C 11 °C 1014.43 hPa W 14 km/h 31 km/h 91% 0 mm 113 W/m2
09:09 13 °C 11 °C 1014.66 hPa W 13 km/h 23 km/h 91% 0 mm 148 W/m2
09:14 13 °C 11 °C 1014.8 hPa W 14 km/h 29 km/h 90% 0 mm 146 W/m2
09:19 13 °C 11 °C 1014.8 hPa WNW 15 km/h 31 km/h 89% 0 mm 141 W/m2
09:24 13 °C 11 °C 1014.87 hPa WNW 15 km/h 31 km/h 89% 0 mm 125 W/m2
09:29 13 °C 11 °C 1015.04 hPa WNW 13 km/h 26 km/h 88% 0 mm 109 W/m2
09:34 13 °C 11 °C 1015.1 hPa W 14 km/h 26 km/h 88% 0 mm 148 W/m2
09:39 13 °C 11 °C 1015.1 hPa WNW 19 km/h 37 km/h 87% 0 mm 148 W/m2
09:44 13 °C 11 °C 1015.48 hPa WNW 19 km/h 34 km/h 86% 0 mm 104 W/m2
09:49 13 °C 10 °C 1015.48 hPa WNW 17 km/h 35 km/h 84% 0 mm 128 W/m2
09:54 13 °C 10 °C 1015.41 hPa WNW 13 km/h 34 km/h 83% 0 mm 276 W/m2
09:59 13 °C 10 °C 1015.41 hPa W 12 km/h 21 km/h 83% 0 mm 132 W/m2
10:04 13 °C 11 °C 1015.34 hPa W 11 km/h 18 km/h 84% 0 mm 146 W/m2
10:09 13 °C 11 °C 1015.34 hPa WSW 9 km/h 16 km/h 85% 0 mm 204 W/m2
10:14 13 °C 11 °C 1015.34 hPa WSW 7 km/h 14 km/h 85% 0 mm 214 W/m2
10:19 13 °C 11 °C 1015.34 hPa WSW 5 km/h 14 km/h 85% 0 mm 199 W/m2
10:24 14 °C 11 °C 1015.54 hPa W 10 km/h 21 km/h 83% 0 mm 156 W/m2
10:29 14 °C 11 °C 1015.75 hPa WNW 12 km/h 29 km/h 81% 0 mm 214 W/m2
10:34 14 °C 10 °C 1015.82 hPa W 14 km/h 29 km/h 79% 0 mm 225 W/m2
10:39 14 °C 10 °C 1015.78 hPa W 11 km/h 24 km/h 79% 0 mm 211 W/m2
10:44 14 °C 10 °C 1015.82 hPa W 12 km/h 21 km/h 79% 0 mm 279 W/m2
10:49 14 °C 10 °C 1015.98 hPa W 11 km/h 21 km/h 79% 0 mm 332 W/m2
10:54 14 °C 11 °C 1016.02 hPa W 12 km/h 21 km/h 79% 0 mm 287 W/m2
10:59 14 °C 11 °C 1016.12 hPa WNW 14 km/h 26 km/h 78% 0 mm 207 W/m2
11:04 14 °C 11 °C 1016.26 hPa WNW 12 km/h 24 km/h 78% 0 mm 241 W/m2
11:09 14 °C 11 °C 1016.26 hPa WNW 12 km/h 26 km/h 78% 0 mm 200 W/m2
11:14 14 °C 11 °C 1016.26 hPa W 16 km/h 26 km/h 78% 0 mm 415 W/m2
11:19 14 °C 11 °C 1016.22 hPa WNW 14 km/h 26 km/h 78% 0 mm 415 W/m2
11:24 15 °C 11 °C 1016.19 hPa W 14 km/h 23 km/h 78% 0 mm 374 W/m2
11:29 15 °C 11 °C 1016.26 hPa W 12 km/h 23 km/h 77% 0 mm 338 W/m2
11:34 15 °C 11 °C 1016.36 hPa W 14 km/h 23 km/h 77% 0 mm 359 W/m2
11:39 15 °C 11 °C 1016.32 hPa WSW 14 km/h 23 km/h 76% 0 mm 411 W/m2
11:44 15 °C 11 °C 1016.32 hPa W 13 km/h 21 km/h 76% 0 mm 362 W/m2
11:49 15 °C 11 °C 1016.32 hPa W 12 km/h 19 km/h 75% 0 mm 276 W/m2
11:54 15 °C 11 °C 1016.42 hPa WSW 13 km/h 21 km/h 75% 0 mm 531 W/m2
11:59 15 °C 11 °C 1016.46 hPa WSW 14 km/h 23 km/h 75% 0 mm 531 W/m2
12:04 16 °C 11 °C 1016.46 hPa W 14 km/h 23 km/h 74% 0 mm 306 W/m2
12:09 16 °C 11 °C 1016.63 hPa WNW 11 km/h 23 km/h 74% 0 mm 272 W/m2
12:14 16 °C 11 °C 1016.66 hPa W 15 km/h 23 km/h 71% 0 mm 230 W/m2
12:19 16 °C 11 °C 1016.63 hPa WNW 14 km/h 23 km/h 71% 0 mm 213 W/m2
12:24 16 °C 11 °C 1016.59 hPa WNW 10 km/h 19 km/h 71% 0 mm 199 W/m2
12:29 16 °C 11 °C 1016.59 hPa W 13 km/h 23 km/h 71% 0 mm 220 W/m2
12:34 16 °C 11 °C 1016.56 hPa WNW 14 km/h 23 km/h 71% 0 mm 283 W/m2
12:39 16 °C 11 °C 1016.63 hPa WNW 15 km/h 32 km/h 71% 0 mm 311 W/m2
12:44 16 °C 10 °C 1016.7 hPa W 19 km/h 34 km/h 70% 0 mm 311 W/m2
12:49 16 °C 10 °C 1016.66 hPa W 17 km/h 32 km/h 70% 0 mm 294 W/m2
12:54 16 °C 10 °C 1016.63 hPa W 15 km/h 21 km/h 69% 0 mm 276 W/m2
12:59 16 °C 10 °C 1016.59 hPa W 13 km/h 21 km/h 70% 0 mm 283 W/m2
13:04 16 °C 11 °C 1016.73 hPa WSW 12 km/h 21 km/h 70% 0 mm 283 W/m2
13:09 16 °C 11 °C 1016.9 hPa WSW 12 km/h 19 km/h 70% 0 mm 237 W/m2
13:14 16 °C 11 °C 1016.97 hPa WSW 14 km/h 24 km/h 70% 0 mm 181 W/m2
13:19 16 °C 11 °C 1017.03 hPa W 15 km/h 26 km/h 71% 0 mm 243 W/m2
13:24 16 °C 11 °C 1017.14 hPa W 14 km/h 26 km/h 71% 0 mm 269 W/m2
13:29 16 °C 11 °C 1017.14 hPa W 14 km/h 23 km/h 71% 0 mm 283 W/m2
13:34 16 °C 11 °C 1017.07 hPa WSW 11 km/h 19 km/h 71% 0 mm 374 W/m2
13:39 16 °C 11 °C 1016.8 hPa WSW 11 km/h 19 km/h 71% 0 mm 322 W/m2
13:44 16 °C 11 °C 1016.76 hPa W 10 km/h 19 km/h 71% 0 mm 267 W/m2
13:49 16 °C 11 °C 1016.73 hPa W 12 km/h 19 km/h 69% 0 mm 213 W/m2
13:54 16 °C 10 °C 1016.73 hPa W 13 km/h 19 km/h 68% 0 mm 223 W/m2
13:59 16 °C 11 °C 1016.73 hPa WSW 12 km/h 19 km/h 69% 0 mm 236 W/m2
14:04 16 °C 10 °C 1016.86 hPa WSW 15 km/h 29 km/h 66% 0 mm 236 W/m2
14:09 16 °C 10 °C 1016.86 hPa W 18 km/h 29 km/h 65% 0 mm 246 W/m2
14:14 16 °C 10 °C 1016.93 hPa W 13 km/h 23 km/h 66% 0 mm 281 W/m2
14:19 16 °C 10 °C 1016.97 hPa W 14 km/h 24 km/h 67% 0 mm 364 W/m2
14:24 17 °C 10 °C 1016.97 hPa WSW 18 km/h 34 km/h 65% 0 mm 413 W/m2
14:29 17 °C 10 °C 1016.97 hPa WSW 17 km/h 31 km/h 65% 0 mm 362 W/m2
14:34 17 °C 10 °C 1017.03 hPa WSW 17 km/h 31 km/h 65% 0 mm 496 W/m2
14:39 17 °C 10 °C 1017.03 hPa WSW 18 km/h 26 km/h 64% 0 mm 691 W/m2
14:44 17 °C 10 °C 1017.07 hPa WSW 17 km/h 29 km/h 64% 0 mm 538 W/m2
14:49 17 °C 10 °C 1017.1 hPa W 20 km/h 31 km/h 63% 0 mm 596 W/m2
14:54 17 °C 10 °C 1017.07 hPa W 17 km/h 31 km/h 64% 0 mm 561 W/m2
14:59 17 °C 10 °C 1017 hPa WSW 17 km/h 29 km/h 63% 0 mm 318 W/m2
15:04 17 °C 10 °C 1017 hPa W 17 km/h 26 km/h 63% 0 mm 334 W/m2
15:09 17 °C 10 °C 1016.97 hPa WSW 16 km/h 31 km/h 64% 0 mm 485 W/m2
15:14 17 °C 10 °C 1016.9 hPa WSW 18 km/h 31 km/h 64% 0 mm 427 W/m2
15:19 17 °C 10 °C 1016.9 hPa WSW 13 km/h 26 km/h 65% 0 mm 561 W/m2
15:24 17 °C 11 °C 1016.86 hPa WSW 16 km/h 26 km/h 64% 0 mm 643 W/m2
15:29 18 °C 10 °C 1016.8 hPa WSW 18 km/h 29 km/h 63% 0 mm 675 W/m2
15:34 18 °C 10 °C 1016.86 hPa W 15 km/h 31 km/h 61% 0 mm 545 W/m2
15:39 18 °C 10 °C 1016.86 hPa W 17 km/h 31 km/h 60% 0 mm 513 W/m2
15:44 18 °C 10 °C 1016.83 hPa WSW 17 km/h 32 km/h 60% 0 mm 475 W/m2
15:49 17 °C 10 °C 1016.76 hPa W 15 km/h 31 km/h 61% 0 mm 577 W/m2
15:54 18 °C 10 °C 1016.83 hPa WNW 18 km/h 31 km/h 61% 0 mm 589 W/m2
15:59 18 °C 10 °C 1016.83 hPa WNW 15 km/h 31 km/h 60% 0 mm 564 W/m2
16:04 18 °C 10 °C 1016.76 hPa W 17 km/h 29 km/h 58% 0 mm 545 W/m2
16:09 18 °C 10 °C 1016.76 hPa W 19 km/h 34 km/h 57% 0 mm 520 W/m2
16:14 18 °C 10 °C 1016.8 hPa W 19 km/h 34 km/h 57% 0 mm 387 W/m2
16:19 18 °C 10 °C 1016.83 hPa W 14 km/h 29 km/h 59% 0 mm 278 W/m2
16:24 18 °C 10 °C 1016.83 hPa WSW 11 km/h 19 km/h 60% 0 mm 457 W/m2
16:29 18 °C 10 °C 1016.9 hPa WSW 14 km/h 26 km/h 59% 0 mm 487 W/m2
16:34 18 °C 10 °C 1016.9 hPa WSW 14 km/h 26 km/h 58% 0 mm 448 W/m2
16:39 18 °C 10 °C 1016.9 hPa WSW 16 km/h 29 km/h 57% 0 mm 413 W/m2
16:44 18 °C 9 °C 1016.93 hPa W 14 km/h 23 km/h 56% 0 mm 432 W/m2
16:49 18 °C 10 °C 1016.83 hPa WSW 11 km/h 23 km/h 57% 0 mm 432 W/m2
16:54 18 °C 10 °C 1016.73 hPa W 17 km/h 31 km/h 57% 0 mm 221 W/m2
16:59 18 °C 9 °C 1016.7 hPa W 16 km/h 31 km/h 57% 0 mm 153 W/m2
17:04 18 °C 9 °C 1016.7 hPa W 12 km/h 26 km/h 58% 0 mm 105 W/m2
17:09 17 °C 10 °C 1016.76 hPa WSW 15 km/h 26 km/h 59% 0 mm 158 W/m2
17:14 17 °C 10 °C 1016.8 hPa WSW 15 km/h 23 km/h 61% 0 mm 383 W/m2
17:19 17 °C 10 °C 1016.8 hPa WSW 13 km/h 23 km/h 61% 0 mm 158 W/m2
17:24 17 °C 10 °C 1016.66 hPa WSW 10 km/h 19 km/h 61% 0 mm 264 W/m2
17:29 17 °C 10 °C 1016.49 hPa WSW 10 km/h 18 km/h 62% 0 mm 352 W/m2
17:34 18 °C 10 °C 1016.59 hPa W 11 km/h 19 km/h 62% 0 mm 352 W/m2
17:39 18 °C 10 °C 1016.59 hPa WSW 12 km/h 21 km/h 62% 0 mm 306 W/m2
17:44 18 °C 10 °C 1016.59 hPa WSW 15 km/h 21 km/h 62% 0 mm 292 W/m2
17:49 18 °C 10 °C 1016.59 hPa WSW 13 km/h 21 km/h 62% 0 mm 255 W/m2
17:54 17 °C 10 °C 1016.53 hPa WSW 12 km/h 19 km/h 63% 0 mm 95 W/m2
17:59 17 °C 11 °C 1016.49 hPa WSW 10 km/h 16 km/h 64% 0 mm 162 W/m2
18:04 17 °C 11 °C 1016.56 hPa WSW 13 km/h 21 km/h 65% 0 mm 214 W/m2
18:09 17 °C 11 °C 1016.63 hPa W 14 km/h 23 km/h 65% 0 mm 165 W/m2
18:14 17 °C 11 °C 1016.63 hPa WSW 13 km/h 21 km/h 65% 0 mm 160 W/m2
18:19 17 °C 11 °C 1016.63 hPa W 11 km/h 19 km/h 65% 0 mm 151 W/m2
18:24 17 °C 11 °C 1016.49 hPa W 10 km/h 19 km/h 66% 0 mm 151 W/m2
18:29 17 °C 11 °C 1016.63 hPa W 9 km/h 14 km/h 65% 0 mm 120 W/m2
18:34 17 °C 11 °C 1016.73 hPa W 9 km/h 16 km/h 65% 0 mm 98 W/m2
18:39 17 °C 11 °C 1016.66 hPa WNW 10 km/h 16 km/h 65% 0 mm 86 W/m2
18:44 17 °C 11 °C 1016.8 hPa WNW 9 km/h 16 km/h 66% 0 mm 62 W/m2
18:49 17 °C 11 °C 1016.9 hPa WNW 10 km/h 19 km/h 66% 0 mm 30 W/m2
18:54 17 °C 11 °C 1016.97 hPa WNW 13 km/h 21 km/h 67% 0 mm 26 W/m2
18:59 16 °C 10 °C 1016.93 hPa WNW 12 km/h 19 km/h 67% 0 mm 26 W/m2
19:04 16 °C 11 °C 1017.1 hPa WNW 11 km/h 16 km/h 68% 0 mm 19 W/m2
19:09 16 °C 10 °C 1017.1 hPa WNW 11 km/h 18 km/h 69% 0 mm 11 W/m2
19:14 16 °C 10 °C 1017.2 hPa W 11 km/h 18 km/h 70% 0 mm 7 W/m2
19:19 16 °C 10 °C 1017.14 hPa W 10 km/h 14 km/h 70% 0 mm 5 W/m2
19:24 16 °C 10 °C 1017.17 hPa W 8 km/h 13 km/h 70% 0 mm 5 W/m2
19:29 16 °C 10 °C 1017.17 hPa WSW 9 km/h 13 km/h 71% 0 mm 0 W/m2
19:34 15 °C 10 °C 1017.24 hPa WSW 10 km/h 16 km/h 72% 0 mm 0 W/m2
19:39 15 °C 10 °C 1017.24 hPa W 10 km/h 16 km/h 72% 0 mm 0 W/m2
19:44 15 °C 10 °C 1017.2 hPa W 8 km/h 13 km/h 73% 0 mm 0 W/m2
19:49 15 °C 10 °C 1017.24 hPa W 8 km/h 11 km/h 73% 0 mm 0 W/m2
19:54 15 °C 10 °C 1017.31 hPa W 7 km/h 13 km/h 73% 0 mm 0 W/m2
19:59 15 °C 11 °C 1017.31 hPa WSW 8 km/h 13 km/h 74% 0 mm 0 W/m2
20:04 15 °C 11 °C 1017.44 hPa WSW 9 km/h 14 km/h 74% 0 mm 0 W/m2
20:09 15 °C 11 °C 1017.44 hPa WSW 10 km/h 18 km/h 74% 0 mm 0 W/m2
20:14 15 °C 11 °C 1017.41 hPa WSW 11 km/h 18 km/h 74% 0 mm 0 W/m2
20:19 15 °C 11 °C 1017.34 hPa W 11 km/h 18 km/h 74% 0 mm 0 W/m2
20:24 15 °C 11 °C 1017.44 hPa WSW 11 km/h 18 km/h 74% 0 mm 0 W/m2
20:29 15 °C 10 °C 1017.54 hPa W 12 km/h 18 km/h 74% 0 mm 0 W/m2
20:34 15 °C 10 °C 1017.68 hPa W 10 km/h 18 km/h 74% 0 mm 0 W/m2
20:39 15 °C 10 °C 1017.78 hPa W 11 km/h 18 km/h 74% 0 mm 0 W/m2
20:44 15 °C 10 °C 1017.68 hPa W 10 km/h 14 km/h 74% 0 mm 0 W/m2
20:49 15 °C 10 °C 1017.71 hPa WSW 9 km/h 14 km/h 74% 0 mm 0 W/m2
20:54 15 °C 10 °C 1017.71 hPa WSW 9 km/h 16 km/h 74% 0 mm 0 W/m2
20:59 15 °C 10 °C 1017.75 hPa WSW 8 km/h 13 km/h 74% 0 mm 0 W/m2
21:04 15 °C 10 °C 1017.71 hPa WSW 9 km/h 14 km/h 75% 0 mm 0 W/m2
21:09 15 °C 10 °C 1017.75 hPa WSW 10 km/h 14 km/h 75% 0 mm 0 W/m2
21:14 15 °C 10 °C 1017.85 hPa WSW 10 km/h 14 km/h 75% 0 mm 0 W/m2
21:19 15 °C 10 °C 1017.88 hPa W 11 km/h 14 km/h 75% 0 mm 0 W/m2
21:24 15 °C 10 °C 1017.95 hPa W 10 km/h 19 km/h 75% 0 mm 0 W/m2
21:29 15 °C 10 °C 1017.95 hPa WSW 12 km/h 23 km/h 75% 0 mm 0 W/m2
21:34 15 °C 10 °C 1017.95 hPa W 14 km/h 24 km/h 74% 0 mm 0 W/m2
21:39 15 °C 10 °C 1018.05 hPa W 15 km/h 24 km/h 73% 0 mm 0 W/m2
21:44 15 °C 10 °C 1018.05 hPa W 13 km/h 21 km/h 73% 0 mm 0 W/m2
21:49 15 °C 10 °C 1018.12 hPa W 15 km/h 21 km/h 72% 0 mm 0 W/m2
21:54 15 °C 10 °C 1018.08 hPa W 12 km/h 19 km/h 72% 0 mm 0 W/m2
21:59 15 °C 10 °C 1018.08 hPa W 10 km/h 16 km/h 72% 0 mm 0 W/m2
22:04 15 °C 10 °C 1017.91 hPa W 9 km/h 16 km/h 71% 0 mm 0 W/m2
22:09 15 °C 10 °C 1017.85 hPa W 8 km/h 16 km/h 71% 0 mm 0 W/m2
22:14 15 °C 10 °C 1017.85 hPa W 11 km/h 19 km/h 71% 0 mm 0 W/m2
22:19 15 °C 9 °C 1017.85 hPa WSW 13 km/h 19 km/h 71% 0 mm 0 W/m2
22:24 15 °C 9 °C 1017.85 hPa WSW 13 km/h 19 km/h 71% 0 mm 0 W/m2
22:29 15 °C 9 °C 1017.88 hPa W 13 km/h 21 km/h 71% 0 mm 0 W/m2
22:34 15 °C 10 °C 1017.85 hPa WSW 10 km/h 19 km/h 71% 0 mm 0 W/m2
22:39 15 °C 10 °C 1017.81 hPa WSW 10 km/h 18 km/h 72% 0 mm 0 W/m2
22:44 15 °C 10 °C 1017.81 hPa WSW 10 km/h 19 km/h 72% 0 mm 0 W/m2
22:49 15 °C 10 °C 1017.81 hPa WSW 11 km/h 19 km/h 73% 0 mm 0 W/m2
22:54 14 °C 10 °C 1017.75 hPa WSW 10 km/h 19 km/h 74% 0 mm 0 W/m2
22:59 14 °C 10 °C 1017.88 hPa WSW 12 km/h 18 km/h 74% 0 mm 0 W/m2
23:04 14 °C 10 °C 1017.91 hPa WSW 11 km/h 19 km/h 74% 0 mm 0 W/m2
23:09 14 °C 10 °C 1018.05 hPa WSW 11 km/h 21 km/h 74% 0 mm 0 W/m2
23:14 14 °C 10 °C 1017.95 hPa WSW 13 km/h 21 km/h 75% 0 mm 0 W/m2
23:19 14 °C 10 °C 1018.08 hPa WSW 11 km/h 21 km/h 75% 0 mm 0 W/m2
23:24 14 °C 10 °C 1018.05 hPa WSW 13 km/h 21 km/h 76% 0 mm 0 W/m2
23:29 14 °C 10 °C 1018.05 hPa WSW 12 km/h 19 km/h 76% 0 mm 0 W/m2
23:34 14 °C 10 °C 1018.02 hPa WSW 11 km/h 19 km/h 76% 0 mm 0 W/m2
23:39 14 °C 10 °C 1018.02 hPa WSW 10 km/h 14 km/h 76% 0 mm 0 W/m2
23:44 14 °C 10 °C 1018.05 hPa W 9 km/h 21 km/h 76% 0 mm 0 W/m2
23:49 14 °C 10 °C 1018.02 hPa WNW 9 km/h 19 km/h 77% 0 mm 0 W/m2
23:54 14 °C 11 °C 1018.02 hPa WNW 12 km/h 26 km/h 78% 0 mm 0 W/m2
23:59 14 °C 11 °C 1018.02 hPa WNW 16 km/h 32 km/h 79% 0 mm 0 W/m2
Delerius Weather
Compliments of Weather Underground - 2 mb

Data updates at regular intervals.